createdAt,value
2022-09-22T00:01:48.665Z,12.00
2022-09-22T00:04:22.994Z,11.45
2022-09-22T00:07:04.925Z,11.15
2022-09-22T00:09:50.875Z,11.17
2022-09-22T00:12:22.483Z,11.00
2022-09-22T00:15:15.840Z,13.15
2022-09-22T00:17:56.292Z,9.52
2022-09-22T00:20:30.022Z,12.52
2022-09-22T00:23:05.032Z,10.00
2022-09-22T00:28:38.225Z,10.80
2022-09-22T00:34:10.244Z,11.88
2022-09-22T00:36:45.075Z,9.93
2022-09-22T00:39:33.168Z,9.93
2022-09-22T00:42:22.416Z,13.20
2022-09-22T00:45:00.739Z,11.48
2022-09-22T00:47:44.973Z,9.95
2022-09-22T00:50:23.280Z,8.55
2022-09-22T00:53:02.036Z,12.38
2022-09-22T00:55:50.044Z,10.15
2022-09-22T00:58:31.256Z,12.15
2022-09-22T01:01:03.701Z,8.77
2022-09-22T01:03:45.872Z,7.35
2022-09-22T01:09:09.131Z,9.13
2022-09-22T01:11:49.731Z,9.93
2022-09-22T01:14:43.829Z,9.02
2022-09-22T01:17:43.780Z,8.32
2022-09-22T01:20:33.665Z,10.75
2022-09-22T01:23:09.933Z,10.05
2022-09-22T01:25:47.682Z,10.35
2022-09-22T01:31:27.780Z,7.57
2022-09-22T01:37:13.459Z,7.72
2022-09-22T01:39:47.902Z,9.02
2022-09-22T01:43:14.204Z,8.13
2022-09-22T01:46:10.155Z,11.38
2022-09-22T01:48:50.614Z,7.47
2022-09-22T01:51:37.002Z,6.43
2022-09-22T01:54:32.505Z,7.22
2022-09-22T01:57:32.199Z,6.68
2022-09-22T02:00:07.818Z,8.90
2022-09-22T02:05:59.017Z,6.72
2022-09-22T02:08:52.637Z,9.75
2022-09-22T02:11:39.472Z,7.07
2022-09-22T02:17:08.779Z,6.00
2022-09-22T02:19:43.739Z,7.72
2022-09-22T02:22:20.643Z,12.15
2022-09-22T02:24:54.188Z,11.07
2022-09-22T02:27:27.916Z,8.30
2022-09-22T02:30:08.509Z,12.25
2022-09-22T02:32:59.218Z,8.02
2022-09-22T02:36:03.095Z,7.45
2022-09-22T02:38:41.297Z,11.05
2022-09-22T02:41:38.039Z,10.98
2022-09-22T02:47:18.058Z,7.78
2022-09-22T02:49:58.930Z,9.32
2022-09-22T02:52:32.531Z,8.38
2022-09-22T02:55:01.464Z,6.50
2022-09-22T02:57:31.347Z,10.88
2022-09-22T03:00:02.983Z,9.27
2022-09-22T03:02:50.911Z,6.95
2022-09-22T03:05:24.706Z,8.95
2022-09-22T03:08:01.888Z,9.98
2022-09-22T03:10:42.862Z,8.32
2022-09-22T03:13:17.759Z,10.27
2022-09-22T03:15:47.121Z,7.07
2022-09-22T03:18:17.911Z,7.72
2022-09-22T03:23:54.740Z,7.00
2022-09-22T03:26:26.181Z,7.05
2022-09-22T03:29:07.152Z,6.18
2022-09-22T03:31:52.424Z,6.18
2022-09-22T03:34:30.621Z,8.32
2022-09-22T03:37:11.682Z,7.63
2022-09-22T03:39:53.976Z,6.85
2022-09-22T03:42:27.705Z,8.02
2022-09-22T03:45:12.243Z,8.90
2022-09-22T03:47:53.644Z,7.53
2022-09-22T03:50:39.453Z,8.35
2022-09-22T03:53:13.777Z,7.00
2022-09-22T03:55:48.831Z,6.95
2022-09-22T03:58:26.812Z,8.15
2022-09-22T04:00:56.909Z,8.07
2022-09-22T04:03:28.744Z,10.93
2022-09-22T04:06:01.769Z,11.53
2022-09-22T04:08:30.005Z,7.03
2022-09-22T04:11:25.794Z,7.93
2022-09-22T04:13:58.485Z,6.78
2022-09-22T04:16:29.570Z,8.45
2022-09-22T04:19:00.855Z,7.40
2022-09-22T04:21:28.504Z,11.15
2022-09-22T04:24:03.994Z,8.93
2022-09-22T04:26:44.456Z,9.63
2022-09-22T04:29:51.941Z,8.15
2022-09-22T04:32:20.163Z,10.52
2022-09-22T04:34:51.323Z,11.05
2022-09-22T04:37:21.791Z,11.98
2022-09-22T04:39:58.840Z,7.93
2022-09-22T04:42:29.274Z,8.85
2022-09-22T04:45:13.016Z,9.00
2022-09-22T04:47:46.770Z,7.90
2022-09-22T04:50:22.449Z,8.68
2022-09-22T04:53:01.344Z,8.20
2022-09-22T04:55:43.842Z,7.35
2022-09-22T04:58:16.894Z,7.13
2022-09-22T05:00:52.163Z,8.32
2022-09-22T05:03:22.665Z,10.80
2022-09-22T05:06:15.895Z,7.88
2022-09-22T05:08:44.397Z,8.43
2022-09-22T05:11:12.876Z,8.10
2022-09-22T05:13:50.363Z,8.30
2022-09-22T05:16:24.030Z,9.02
2022-09-22T05:18:56.551Z,8.77
2022-09-22T05:21:24.361Z,9.20
2022-09-22T05:23:56.176Z,7.82
2022-09-22T05:26:26.308Z,8.05
2022-09-22T05:28:58.361Z,7.55
2022-09-22T05:31:28.229Z,8.82
2022-09-22T05:34:01.348Z,8.48
2022-09-22T05:36:34.082Z,12.02
2022-09-22T05:39:04.892Z,12.35
2022-09-22T05:41:44.316Z,9.60
2022-09-22T05:44:13.081Z,10.27
2022-09-22T05:46:49.475Z,10.88
2022-09-22T05:49:28.183Z,13.73
2022-09-22T05:52:00.378Z,17.52
2022-09-22T05:54:32.144Z,12.73
2022-09-22T05:57:02.865Z,10.50
2022-09-22T05:59:35.459Z,10.02
2022-09-22T06:02:25.191Z,12.13
2022-09-22T06:04:55.179Z,12.52
2022-09-22T06:07:33.920Z,17.30
2022-09-22T06:10:19.362Z,11.32
2022-09-22T06:12:49.708Z,15.45
2022-09-22T06:15:26.005Z,13.98
2022-09-22T06:18:15.135Z,17.33
2022-09-22T06:20:52.620Z,12.40
2022-09-22T06:23:29.996Z,18.60
2022-09-22T06:25:59.068Z,19.48
2022-09-22T06:28:34.376Z,21.30
2022-09-22T06:31:05.491Z,27.85
2022-09-22T06:33:36.118Z,26.90
2022-09-22T06:36:25.887Z,24.20
2022-09-22T06:38:59.318Z,26.58
2022-09-22T06:41:54.013Z,33.13
2022-09-22T06:44:31.759Z,35.72
2022-09-22T06:47:04.757Z,30.85
2022-09-22T06:49:44.917Z,32.20
2022-09-22T06:52:15.628Z,33.47
2022-09-22T06:54:55.378Z,32.83
2022-09-22T06:57:32.617Z,45.35
2022-09-22T07:00:10.420Z,33.42
2022-09-22T07:02:44.801Z,32.35
2022-09-22T07:05:14.865Z,35.25
2022-09-22T07:07:46.935Z,31.17
2022-09-22T07:10:28.532Z,33.20
2022-09-22T07:12:56.597Z,31.92
2022-09-22T07:15:30.932Z,30.48
2022-09-22T07:18:06.451Z,31.88
2022-09-22T07:20:38.831Z,25.67
2022-09-22T07:23:30.778Z,27.73
2022-09-22T07:26:05.008Z,29.50
2022-09-22T07:28:36.935Z,27.60
2022-09-22T07:31:12.314Z,24.75
2022-09-22T07:33:54.371Z,23.63
2022-09-22T07:36:26.398Z,23.77
2022-09-22T07:38:57.346Z,21.42
2022-09-22T07:41:35.663Z,22.83
2022-09-22T07:44:26.959Z,22.45
2022-09-22T07:47:03.908Z,30.70
2022-09-22T07:49:39.937Z,21.27
2022-09-22T07:52:16.395Z,19.73
2022-09-22T07:54:44.989Z,18.90
2022-09-22T07:57:12.907Z,22.75
2022-09-22T07:59:45.452Z,20.92
2022-09-22T08:02:19.212Z,28.05
2022-09-22T08:04:47.024Z,24.45
2022-09-22T08:07:22.370Z,20.58
2022-09-22T08:09:53.085Z,18.75
2022-09-22T08:12:27.851Z,20.58
2022-09-22T08:15:00.875Z,17.17
2022-09-22T08:17:51.149Z,21.60
2022-09-22T08:20:23.714Z,19.90
2022-09-22T08:22:58.636Z,21.48
2022-09-22T08:25:34.987Z,18.50
2022-09-22T08:28:06.148Z,18.30
2022-09-22T08:30:37.829Z,16.50
2022-09-22T08:33:11.118Z,18.85
2022-09-22T08:35:39.396Z,17.75
2022-09-22T08:38:15.109Z,19.80
2022-09-22T08:40:49.276Z,18.83
2022-09-22T08:43:23.895Z,18.90
2022-09-22T08:49:10.882Z,17.27
2022-09-22T08:51:52.569Z,17.13
2022-09-22T08:54:42.817Z,15.85
2022-09-22T08:57:34.438Z,14.18
2022-09-22T09:00:18.285Z,15.05
2022-09-22T09:02:58.910Z,13.32
2022-09-22T09:05:51.424Z,15.23
2022-09-22T09:08:40.582Z,14.48
2022-09-22T09:11:09.111Z,14.43
2022-09-22T09:14:14.490Z,11.57
2022-09-22T09:17:06.502Z,15.63
2022-09-22T09:20:01.371Z,12.88
2022-09-22T09:22:45.003Z,12.68
2022-09-22T09:25:22.272Z,14.05
2022-09-22T09:27:59.969Z,11.55
2022-09-22T09:30:36.429Z,10.90
2022-09-22T09:33:11.642Z,13.20
2022-09-22T09:35:54.735Z,11.85
2022-09-22T09:38:33.882Z,11.68
2022-09-22T09:41:15.351Z,10.32
2022-09-22T09:43:53.226Z,9.88
2022-09-22T09:46:36.073Z,10.20
2022-09-22T09:49:16.320Z,13.88
2022-09-22T09:51:55.467Z,10.60
2022-09-22T09:54:40.493Z,12.48
2022-09-22T09:57:27.654Z,11.90
2022-09-22T10:00:55.509Z,10.50
2022-09-22T10:03:26.020Z,6.38
2022-09-22T10:06:06.842Z,7.82
2022-09-22T10:08:46.130Z,9.18
2022-09-22T10:11:33.004Z,6.88
2022-09-22T10:14:02.254Z,7.40
2022-09-22T10:16:42.812Z,8.00
2022-09-22T10:19:22.279Z,5.47
2022-09-22T10:22:18.407Z,10.20
2022-09-22T10:25:04.965Z,9.10
2022-09-22T10:27:38.292Z,6.10
2022-09-22T10:30:24.174Z,7.03
2022-09-22T10:33:05.413Z,10.38
2022-09-22T10:35:38.751Z,6.05
2022-09-22T10:38:30.479Z,9.32
2022-09-22T10:41:11.023Z,7.00
2022-09-22T10:43:44.164Z,6.82
2022-09-22T10:46:16.345Z,6.75
2022-09-22T10:49:12.815Z,6.90
2022-09-22T10:51:55.615Z,7.18
2022-09-22T10:54:31.984Z,5.75
2022-09-22T10:57:10.499Z,3.72
2022-09-22T11:00:03.654Z,6.28
2022-09-22T11:02:52.519Z,6.78
2022-09-22T11:06:01.722Z,7.70
2022-09-22T11:09:00.439Z,7.43
2022-09-22T11:12:19.987Z,6.55
2022-09-22T11:15:08.522Z,7.45
2022-09-22T11:21:07.126Z,7.70
2022-09-22T11:24:04.108Z,6.82
2022-09-22T11:26:35.392Z,12.05
2022-09-22T11:29:30.176Z,9.10
2022-09-22T11:32:16.305Z,7.50
2022-09-22T11:34:51.965Z,7.03
2022-09-22T11:37:29.363Z,8.77
2022-09-22T11:40:23.283Z,11.18
2022-09-22T11:43:06.778Z,8.38
2022-09-22T11:45:42.494Z,6.97
2022-09-22T11:48:39.552Z,7.40
2022-09-22T11:51:13.889Z,9.70
2022-09-22T11:54:01.628Z,8.57
2022-09-22T11:56:55.417Z,7.32
2022-09-22T11:59:49.371Z,7.68
2022-09-22T12:02:43.857Z,5.35
2022-09-22T12:05:35.737Z,5.28
2022-09-22T12:08:13.554Z,4.78
2022-09-22T12:10:48.681Z,5.03
2022-09-22T12:13:31.221Z,3.30
2022-09-22T12:16:27.456Z,4.07
2022-09-22T12:19:08.210Z,6.22
2022-09-22T12:22:06.820Z,5.68
2022-09-22T12:25:08.034Z,4.43
2022-09-22T12:28:06.712Z,4.90
2022-09-22T12:30:53.641Z,3.90
2022-09-22T12:33:30.995Z,5.75
2022-09-22T12:36:07.763Z,4.07
2022-09-22T12:41:25.991Z,3.10
2022-09-22T12:44:13.405Z,6.40
2022-09-22T12:47:04.690Z,4.95
2022-09-22T12:49:44.280Z,4.20
2022-09-22T12:52:33.808Z,3.20
2022-09-22T12:55:24.238Z,6.15
2022-09-22T12:57:55.881Z,4.03
2022-09-22T13:00:34.964Z,4.78
2022-09-22T13:05:40.762Z,6.80
2022-09-22T13:08:18.693Z,5.85
2022-09-22T13:10:56.706Z,4.00
2022-09-22T13:13:45.464Z,4.75
2022-09-22T13:16:17.158Z,5.57
2022-09-22T13:19:33.073Z,6.03
2022-09-22T13:22:18.053Z,8.15
2022-09-22T13:24:53.379Z,7.13
2022-09-22T13:27:28.937Z,7.00
2022-09-22T13:29:59.869Z,5.03
2022-09-22T13:32:31.787Z,4.70
2022-09-22T13:37:55.876Z,5.00
2022-09-22T13:43:31.657Z,3.97
2022-09-22T13:46:08.683Z,5.25
2022-09-22T13:48:43.875Z,3.25
2022-09-22T13:51:24.247Z,3.55
2022-09-22T13:54:05.259Z,4.35
2022-09-22T13:56:55.459Z,3.13
2022-09-22T13:59:35.268Z,4.70
2022-09-22T14:02:08.831Z,5.30
2022-09-22T14:04:50.496Z,5.25
2022-09-22T14:10:41.350Z,4.45
2022-09-22T14:13:33.176Z,4.97
2022-09-22T14:19:07.398Z,4.22
2022-09-22T14:21:54.811Z,5.03
2022-09-22T14:24:30.114Z,5.85
2022-09-22T14:27:24.882Z,5.13
2022-09-22T14:30:28.259Z,5.13
2022-09-22T14:33:13.968Z,4.70
2022-09-22T14:35:56.331Z,5.10
2022-09-22T14:38:31.309Z,3.53
2022-09-22T14:41:00.311Z,5.25
2022-09-22T14:43:44.862Z,4.90
2022-09-22T14:46:50.946Z,5.80
2022-09-22T14:56:17.819Z,3.95
2022-09-22T15:01:26.627Z,14.23
2022-09-22T15:07:10.515Z,3.53
2022-09-22T15:09:58.279Z,6.15
2022-09-22T15:13:16.417Z,4.57
2022-09-22T15:16:03.703Z,4.73
2022-09-22T15:19:02.011Z,7.57
2022-09-22T15:21:34.975Z,5.22
2022-09-22T15:24:23.066Z,6.22
2022-09-22T15:32:27.491Z,6.35
2022-09-22T15:35:10.076Z,7.50
2022-09-22T15:37:55.897Z,6.18
2022-09-22T15:43:26.046Z,3.92
2022-09-22T15:49:00.251Z,3.80
2022-09-22T15:51:58.340Z,5.30
2022-09-22T16:03:36.900Z,4.35
2022-09-22T16:06:24.434Z,7.03
2022-09-22T16:09:10.035Z,3.92
2022-09-22T16:14:45.313Z,4.57
2022-09-22T16:17:30.646Z,4.13
2022-09-22T16:20:04.512Z,4.97
2022-09-22T16:22:39.340Z,5.70
2022-09-22T16:25:19.253Z,10.55
2022-09-22T16:28:01.685Z,7.22
2022-09-22T16:30:32.761Z,5.05
2022-09-22T16:33:10.443Z,9.93
2022-09-22T16:35:52.235Z,10.13
2022-09-22T16:38:35.038Z,5.22
2022-09-22T16:41:29.401Z,13.20
2022-09-22T16:44:04.278Z,5.53
2022-09-22T16:46:35.732Z,11.43
2022-09-22T16:49:15.853Z,7.25
2022-09-22T16:51:55.328Z,15.15
2022-09-22T16:54:26.428Z,14.13
2022-09-22T16:57:01.359Z,12.13
2022-09-22T16:59:30.158Z,14.07
2022-09-22T17:02:02.462Z,10.85
2022-09-22T17:04:32.558Z,7.32
2022-09-22T17:07:17.461Z,16.25
2022-09-22T17:09:58.891Z,11.77
2022-09-22T17:12:31.920Z,9.80
2022-09-22T17:15:02.056Z,6.95
2022-09-22T17:17:49.297Z,8.27
2022-09-22T17:20:22.432Z,18.80
2022-09-22T17:23:12.446Z,9.27
2022-09-22T17:25:49.831Z,8.25
2022-09-22T17:28:28.735Z,5.20
2022-09-22T17:31:09.721Z,6.82
2022-09-22T17:34:00.632Z,7.03
2022-09-22T17:36:51.055Z,5.45
2022-09-22T17:39:32.419Z,6.00
2022-09-22T17:42:02.816Z,8.45
2022-09-22T17:44:35.943Z,5.47
2022-09-22T17:47:34.108Z,5.78
2022-09-22T17:50:24.691Z,7.28
2022-09-22T17:53:19.690Z,5.53
2022-09-22T17:56:13.033Z,7.75
2022-09-22T17:58:48.433Z,8.88
2022-09-22T18:01:32.817Z,5.03
2022-09-22T18:04:08.138Z,4.85
2022-09-22T18:06:48.069Z,7.57
2022-09-22T18:09:28.273Z,7.47
2022-09-22T18:11:56.160Z,5.93
2022-09-22T18:14:27.461Z,8.55
2022-09-22T18:16:58.469Z,13.30
2022-09-22T18:19:29.381Z,9.23
2022-09-22T18:22:14.534Z,7.47
2022-09-22T18:24:53.721Z,8.45
2022-09-22T18:27:27.231Z,6.80
2022-09-22T18:29:58.811Z,12.35
2022-09-22T18:32:40.158Z,6.88
2022-09-22T18:35:28.851Z,9.18
2022-09-22T18:37:56.791Z,10.52
2022-09-22T18:40:24.611Z,9.60
2022-09-22T18:42:56.827Z,11.20
2022-09-22T18:45:29.009Z,8.60
2022-09-22T18:47:59.470Z,8.50
2022-09-22T18:50:30.848Z,9.43
2022-09-22T18:52:58.621Z,9.43
2022-09-22T18:58:22.773Z,9.63
2022-09-22T19:00:55.648Z,10.10
2022-09-22T19:03:24.735Z,10.75
2022-09-22T19:05:53.645Z,9.60
2022-09-22T19:08:28.146Z,15.60
2022-09-22T19:11:05.506Z,10.45
2022-09-22T19:13:41.874Z,9.60
2022-09-22T19:16:22.560Z,12.82
2022-09-22T19:18:58.352Z,13.13
2022-09-22T19:21:26.324Z,13.00
2022-09-22T19:24:12.535Z,11.83
2022-09-22T19:27:04.921Z,9.35
2022-09-22T19:29:33.705Z,10.20
2022-09-22T19:32:13.581Z,13.23
2022-09-22T19:34:47.201Z,9.00
2022-09-22T19:37:39.545Z,11.45
2022-09-22T19:40:21.702Z,10.05
2022-09-22T19:43:04.880Z,9.98
2022-09-22T19:45:36.079Z,9.05
2022-09-22T19:51:00.346Z,11.70
2022-09-22T19:53:37.313Z,12.77
2022-09-22T19:56:09.181Z,11.20
2022-09-22T19:58:37.077Z,11.35
2022-09-22T20:01:36.630Z,16.13
2022-09-22T20:04:11.012Z,11.85
2022-09-22T20:06:41.346Z,11.60
2022-09-22T20:09:14.744Z,14.73
2022-09-22T20:14:51.567Z,13.05
2022-09-22T20:17:24.145Z,12.32
2022-09-22T20:20:07.845Z,15.80
2022-09-22T20:22:45.458Z,11.85
2022-09-22T20:25:32.163Z,13.82
2022-09-22T20:28:07.680Z,14.68
2022-09-22T20:30:49.173Z,12.65
2022-09-22T20:33:22.995Z,13.65
2022-09-22T20:35:51.878Z,14.65
2022-09-22T20:38:19.968Z,12.40
2022-09-22T20:40:50.781Z,14.13
2022-09-22T20:43:25.206Z,14.82
2022-09-22T20:46:05.823Z,14.43
2022-09-22T20:48:36.187Z,11.82
2022-09-22T20:51:05.527Z,12.60
2022-09-22T20:53:43.580Z,12.80
2022-09-22T20:56:12.221Z,17.17
2022-09-22T20:58:50.539Z,12.50
2022-09-22T21:01:47.209Z,14.77
2022-09-22T21:04:29.458Z,15.10
2022-09-22T21:07:02.042Z,16.70
2022-09-22T21:10:13.122Z,18.17
2022-09-22T21:12:59.502Z,15.93
2022-09-22T21:15:27.757Z,18.08
2022-09-22T21:18:29.314Z,18.83
2022-09-22T21:21:26.613Z,15.40
2022-09-22T21:27:07.516Z,14.70
2022-09-22T21:30:14.094Z,15.70
2022-09-22T21:32:45.467Z,13.65
2022-09-22T21:35:19.683Z,14.35
2022-09-22T21:38:21.991Z,17.40
2022-09-22T21:41:03.172Z,15.55
2022-09-22T21:43:39.549Z,16.55
2022-09-22T21:46:28.265Z,14.20
2022-09-22T21:59:46.860Z,15.80
2022-09-22T22:02:24.585Z,18.15
2022-09-22T22:05:10.012Z,15.73
2022-09-22T22:08:05.673Z,16.52
2022-09-22T22:10:45.496Z,15.95
2022-09-22T22:13:28.692Z,15.80
2022-09-22T22:16:23.565Z,14.20
2022-09-22T22:19:06.947Z,14.23
2022-09-22T22:21:48.751Z,16.05
2022-09-22T22:24:29.439Z,16.00
2022-09-22T22:27:05.394Z,17.58
2022-09-22T22:29:44.710Z,16.20
2022-09-22T22:32:15.441Z,16.13
2022-09-22T22:35:04.503Z,15.80
2022-09-22T22:37:35.588Z,15.45
2022-09-22T22:40:08.832Z,16.48
2022-09-22T22:43:02.685Z,14.88
2022-09-22T22:48:24.864Z,15.43
2022-09-22T22:51:02.533Z,14.68
2022-09-22T22:53:51.420Z,17.83
2022-09-22T22:56:41.782Z,15.43
2022-09-22T22:59:20.287Z,17.30
2022-09-22T23:01:50.241Z,16.30
2022-09-22T23:04:31.867Z,17.40
2022-09-22T23:07:14.267Z,17.85
2022-09-22T23:09:56.523Z,16.48
2022-09-22T23:12:30.416Z,16.77
2022-09-22T23:15:18.725Z,15.20
2022-09-22T23:17:49.306Z,16.25
2022-09-22T23:20:24.065Z,16.08
2022-09-22T23:23:02.097Z,15.48
2022-09-22T23:25:37.001Z,16.73
2022-09-22T23:28:12.353Z,19.08
2022-09-22T23:30:51.336Z,17.55
2022-09-22T23:33:30.258Z,18.35
2022-09-22T23:36:11.543Z,18.25
2022-09-22T23:38:48.028Z,15.13
2022-09-22T23:41:19.470Z,18.58
2022-09-22T23:43:51.465Z,16.13
2022-09-22T23:46:24.533Z,16.95
2022-09-22T23:49:16.048Z,17.60
2022-09-22T23:51:49.808Z,16.58
2022-09-22T23:57:08.301Z,15.10
2022-09-22T23:59:53.872Z,17.02
